Time;durP1;ratioP1;P1;durP2;ratioP2;P2;SDS_P1;SDS_P2;PMS_P1;PMS_P2;Temp;Humidity;BMP_temperature;BMP_pressure;BME280_temperature;BME280_humidity;BME280_pressure;Samples;Min_cycle;Max_cycle;Signal;HPM_P1;HPM_P2
2022/09/16 00:02:04;;;;;;;27.67;4.87;;;;;;;22.86;61.27;94346.53;5052502;28;20453;-83
2022/09/16 00:04:32;;;;;;;7.60;3.87;;;;;;;22.71;61.37;94333.44;5017527;28;20465;-84
2022/09/16 00:06:59;;;;;;;13.03;4.03;;;;;;;22.61;61.88;94341.13;5052486;28;20944;-83
2022/09/16 00:09:26;;;;;;;7.67;4.40;;;;;;;22.56;61.54;94332.94;5052432;28;20453;-83
2022/09/16 00:11:52;;;;;;;6.77;3.80;;;;;;;22.61;61.50;94335.78;5052281;28;20813;-84
2022/09/16 00:14:19;;;;;;;8.13;3.77;;;;;;;22.53;60.53;94330.69;5052306;28;20446;-83
2022/09/16 00:16:46;;;;;;;6.13;4.23;;;;;;;22.44;60.35;94332.00;5052474;28;20453;-83
2022/09/16 00:19:13;;;;;;;4.00;3.40;;;;;;;22.41;61.34;94329.75;5052243;28;20576;-83
2022/09/16 00:21:41;;;;;;;7.50;3.83;;;;;;;22.50;61.33;94342.63;5052196;28;20457;-83
2022/09/16 00:24:12;;;;;;;11.13;3.57;;;;;;;22.53;61.28;94344.06;5052295;28;20449;-82
2022/09/16 00:26:39;;;;;;;12.50;3.90;;;;;;;22.49;61.05;94340.19;5018301;28;20487;-83
2022/09/16 00:29:05;;;;;;;10.90;3.83;;;;;;;22.29;61.07;94337.66;5052544;28;20956;-83
2022/09/16 00:31:32;;;;;;;5.53;3.60;;;;;;;22.14;61.75;94348.63;5052446;28;20453;-83
2022/09/16 00:33:59;;;;;;;5.63;4.27;;;;;;;22.27;62.24;94341.59;5052043;28;21019;-83
2022/09/16 00:36:26;;;;;;;8.83;3.80;;;;;;;22.36;62.31;94340.28;5051590;28;20457;-83
2022/09/16 00:38:55;;;;;;;9.60;4.20;;;;;;;22.42;62.12;94342.09;5051860;28;20489;-84
2022/09/16 00:41:24;;;;;;;5.87;3.93;;;;;;;22.46;62.11;94344.09;5051811;28;20453;-83
2022/09/16 00:43:54;;;;;;;10.53;4.47;;;;;;;22.43;61.80;94328.50;5052143;28;20446;-83
2022/09/16 00:46:29;;;;;;;5.90;3.63;;;;;;;22.51;61.79;94346.13;5052183;28;20450;-83
2022/09/16 00:48:58;;;;;;;9.30;3.67;;;;;;;22.53;61.53;94344.06;5052088;28;20472;-83
2022/09/16 00:51:25;;;;;;;5.13;3.60;;;;;;;22.45;61.43;94345.16;5052193;28;20441;-83
2022/09/16 00:53:59;;;;;;;7.77;3.60;;;;;;;22.46;61.54;94351.31;5051813;28;20430;-83
2022/09/16 00:56:27;;;;;;;6.63;4.20;;;;;;;22.47;62.13;94348.41;5052626;28;20537;-83
2022/09/16 00:59:01;;;;;;;9.23;3.93;;;;;;;22.42;62.36;94337.56;5051935;28;20992;-83
2022/09/16 01:01:28;;;;;;;18.23;4.53;;;;;;;22.44;62.56;94340.84;5049941;28;20495;-83
2022/09/16 01:03:59;;;;;;;8.70;4.07;;;;;;;22.45;62.58;94349.66;5051906;28;20441;-83
2022/09/16 01:06:28;;;;;;;6.43;3.97;;;;;;;22.48;62.45;94365.28;5051554;28;20890;-83
2022/09/16 01:08:57;;;;;;;9.00;3.70;;;;;;;22.40;62.66;94374.38;5051767;28;20477;-83
2022/09/16 01:11:24;;;;;;;11.63;4.30;;;;;;;22.36;62.79;94365.16;5052053;28;20503;-83
2022/09/16 01:13:51;;;;;;;6.50;4.13;;;;;;;;;;5051768;28;20450;-83
2022/09/16 01:16:26;;;;;;;12.93;3.70;;;;;;;22.32;63.42;94355.94;5051769;28;20886;-83
2022/09/16 01:19:04;;;;;;;10.47;3.43;;;;;;;21.99;64.03;94342.72;5049326;28;20568;-83
2022/09/16 01:21:43;;;;;;;8.10;3.53;;;;;;;22.11;64.26;94356.25;5051909;28;20464;-84
2022/09/16 01:24:45;;;;;;;11.27;3.33;;;;;;;21.76;64.75;94351.25;5051796;28;20465;-84
2022/09/16 01:27:30;;;;;;;14.73;3.67;;;;;;;21.72;65.88;94341.22;5051586;28;20519;-83
2022/09/16 01:30:24;;;;;;;8.87;3.60;;;;;;;21.77;65.90;94360.09;5049459;28;20503;-83
2022/09/16 01:33:03;;;;;;;8.87;3.53;;;;;;;21.70;64.93;94360.13;5051442;28;20442;-82
2022/09/16 01:35:44;;;;;;;6.63;4.23;;;;;;;21.65;64.41;94373.25;5032624;28;20440;-83
2022/09/16 01:38:26;;;;;;;7.23;4.20;;;;;;;21.54;64.60;94361.41;5051392;28;20481;-84
2022/09/16 01:41:02;;;;;;;7.30;3.23;;;;;;;21.58;64.99;94351.94;5051481;28;20457;-83
2022/09/16 01:43:38;;;;;;;9.03;4.07;;;;;;;21.67;64.86;94341.00;5051340;28;20906;-83
2022/09/16 01:46:16;;;;;;;6.73;3.20;;;;;;;21.78;64.63;94343.84;5051773;28;20928;-83
2022/09/16 01:48:51;;;;;;;5.47;3.77;;;;;;;21.88;64.05;94343.38;5054798;28;20477;-83
2022/09/16 01:51:23;;;;;;;8.53;3.87;;;;;;;21.90;64.02;94342.13;5055407;28;20430;-83
2022/09/16 01:54:02;;;;;;;7.67;2.90;;;;;;;22.03;64.15;94359.97;5054906;28;20929;-83
2022/09/16 01:56:35;;;;;;;8.23;3.60;;;;;;;22.09;64.03;94356.47;5054820;28;20978;-83
2022/09/16 01:59:08;;;;;;;8.90;3.30;;;;;;;22.13;63.99;94346.16;5055059;28;20525;-83
2022/09/16 02:01:40;;;;;;;14.37;4.60;;;;;;;22.10;64.13;94350.09;5055025;28;20872;-83
2022/09/16 02:04:14;;;;;;;11.03;4.97;;;;;;;22.15;64.10;94346.78;5052703;28;20465;-83
2022/09/16 02:06:44;;;;;;;5.00;3.50;;;;;;;22.13;65.05;94344.31;5054698;28;20453;-84
2022/09/16 02:09:17;;;;;;;9.50;3.80;;;;;;;22.10;64.92;94338.59;5054573;28;20458;-82
2022/09/16 02:11:47;;;;;;;11.53;3.63;;;;;;;22.14;64.51;94343.28;5054769;28;20442;-83
2022/09/16 02:14:19;;;;;;;5.83;4.00;;;;;;;22.16;64.55;94338.53;5054763;28;20802;-83
2022/09/16 02:16:50;;;;;;;6.33;4.70;;;;;;;22.17;64.62;94329.50;5054462;28;20920;-83
2022/09/16 02:19:23;;;;;;;10.20;5.50;;;;;;;22.14;64.58;94327.25;5054287;28;20992;-83
2022/09/16 02:21:51;;;;;;;9.87;3.77;;;;;;;21.87;64.39;94329.22;5054829;28;20442;-83
2022/09/16 02:24:22;;;;;;;16.87;3.80;;;;;;;22.03;65.21;94335.94;5054647;28;20959;-82
2022/09/16 02:26:53;;;;;;;11.10;3.80;;;;;;;22.07;65.52;94339.84;5054336;28;20442;-83
2022/09/16 02:29:25;;;;;;;20.03;3.53;;;;;;;22.10;65.52;94338.59;5054321;28;20520;-83
2022/09/16 02:31:56;;;;;;;5.83;4.07;;;;;;;22.15;65.35;94334.22;5054227;28;20442;-83
2022/09/16 02:34:28;;;;;;;5.40;3.83;;;;;;;22.17;65.77;94339.34;5054293;28;20446;-83
2022/09/16 02:37:01;;;;;;;8.00;4.00;;;;;;;22.19;64.94;94339.97;5054466;28;20459;-83
2022/09/16 02:39:32;;;;;;;11.33;4.47;;;;;;;22.21;64.60;94338.72;5054355;28;20469;-83
2022/09/16 02:42:00;;;;;;;10.77;3.50;;;;;;;22.15;63.92;94331.56;5054192;28;20457;-83
2022/09/16 02:44:27;;;;;;;10.53;3.80;;;;;;;22.19;64.99;94350.66;5054080;28;20503;-83
2022/09/16 02:47:01;;;;;;;6.90;4.23;;;;;;;22.23;64.39;94357.22;5054268;28;20452;-83
2022/09/16 02:49:41;;;;;;;12.50;3.70;;;;;;;22.24;63.90;94353.50;5053678;28;20520;-84
2022/09/16 02:52:16;;;;;;;8.90;4.20;;;;;;;22.24;64.01;94345.47;5053877;28;20449;-83
2022/09/16 02:54:50;;;;;;;4.37;3.03;;;;;;;22.22;64.64;94347.53;5053611;28;20532;-84
2022/09/16 02:57:17;;;;;;;15.57;4.30;;;;;;;22.25;64.58;94366.66;5053741;28;20485;-84
2022/09/16 02:59:44;;;;;;;12.97;4.17;;;;;;;22.25;64.23;94353.28;5053231;28;20486;-83
2022/09/16 03:02:12;;;;;;;6.97;4.30;;;;;;;22.16;64.30;94349.22;5053020;28;20894;-83
2022/09/16 03:04:40;;;;;;;8.53;3.70;;;;;;;22.17;64.36;94348.19;5040575;28;20454;-84
2022/09/16 03:07:10;;;;;;;8.93;3.17;;;;;;;22.19;64.51;94348.81;5033611;28;20508;-83
2022/09/16 03:09:42;;;;;;;10.60;3.20;;;;;;;22.16;64.51;94359.91;5033761;28;20449;-84
2022/09/16 03:12:42;;;;;;;6.70;3.97;;;;;;;22.15;64.54;94357.47;5033485;28;20442;-84
2022/09/16 03:15:44;;;;;;;13.07;4.07;;;;;;;22.12;65.14;94363.25;4991812;28;20453;-83
2022/09/16 03:18:39;;;;;;;10.50;3.93;;;;;;;22.17;64.74;94374.09;4991874;28;20444;-83
2022/09/16 03:21:16;;;;;;;6.90;3.00;;;;;;;22.18;64.08;94368.53;4991733;28;20491;-83
2022/09/16 03:23:49;;;;;;;6.63;3.40;;;;;;;22.15;64.38;94366.31;4943512;28;20945;-83
2022/09/16 03:26:22;;;;;;;13.63;4.83;;;;;;;22.22;65.01;94388.47;4991724;28;20448;-83
2022/09/16 03:29:00;;;;;;;22.23;3.97;;;;;;;22.20;64.08;94377.16;4991449;28;20543;-84
2022/09/16 03:31:30;;;;;;;5.90;3.70;;;;;;;21.92;64.69;94373.97;4991770;28;20462;-84
2022/09/16 03:34:04;;;;;;;9.83;3.50;;;;;;;21.92;65.30;94385.50;4991464;28;20531;-84
2022/09/16 03:36:35;;;;;;;6.17;3.13;;;;;;;21.94;65.75;94387.94;4991805;28;20464;-84
2022/09/16 03:39:04;;;;;;;11.37;4.97;;;;;;;21.93;65.54;94387.13;4991360;28;20515;-83
2022/09/16 03:41:33;;;;;;;10.67;3.37;;;;;;;21.81;66.17;94364.78;4991563;28;20495;-84
2022/09/16 03:44:01;;;;;;;5.73;3.53;;;;;;;21.47;67.69;94363.28;4991083;28;20505;-84
2022/09/16 03:46:28;;;;;;;4.90;3.60;;;;;;;21.65;67.34;94373.25;4991266;28;20451;-83
2022/09/16 03:48:55;;;;;;;12.83;3.70;;;;;;;21.73;67.44;94358.88;4990946;28;20473;-83
2022/09/16 03:51:22;;;;;;;7.30;3.83;;;;;;;21.58;68.15;94340.44;4982718;28;20454;-83
2022/09/16 03:53:51;;;;;;;5.13;3.37;;;;;;;21.39;68.76;94347.47;5033001;28;20457;-83
2022/09/16 03:56:17;;;;;;;8.20;3.57;;;;;;;21.56;68.82;94350.50;5032974;28;20443;-83
2022/09/16 03:58:45;;;;;;;9.90;4.00;;;;;;;21.54;69.02;94365.91;5032970;28;20439;-84
2022/09/16 04:01:13;;;;;;;10.13;4.00;;;;;;;21.51;69.20;94356.47;4997647;28;20478;-83
2022/09/16 04:03:39;;;;;;;10.50;3.80;;;;;;;21.45;68.64;94338.63;5033604;28;20455;-84
2022/09/16 04:06:07;;;;;;;8.30;3.20;;;;;;;21.48;69.16;94340.06;5032166;28;20449;-82
2022/09/16 04:08:34;;;;;;;8.57;3.57;;;;;;;21.46;69.51;94350.94;5014223;28;20448;-84
2022/09/16 04:11:05;;;;;;;11.10;4.70;;;;;;;21.43;68.85;94348.72;5031466;28;21024;-84
2022/09/16 04:13:33;;;;;;;8.20;5.20;;;;;;;21.44;69.00;94361.03;5032406;28;20443;-85
2022/09/16 04:16:00;;;;;;;9.93;4.77;;;;;;;21.43;69.37;94369.25;5050689;28;20458;-88
2022/09/16 04:18:27;;;;;;;13.63;3.90;;;;;;;21.38;69.19;94375.19;5052650;28;20955;-83
2022/09/16 04:20:57;;;;;;;8.77;4.50;;;;;;;21.53;68.83;94396.31;5052108;28;20489;-84
2022/09/16 04:23:24;;;;;;;5.20;4.20;;;;;;;21.55;68.05;94405.75;5052890;28;20450;-84
2022/09/16 04:25:54;;;;;;;15.50;4.20;;;;;;;21.54;67.89;94403.28;5053343;28;20485;-84
2022/09/16 04:28:23;;;;;;;10.93;4.37;;;;;;;21.59;67.96;94422.19;5053667;28;20489;-84
2022/09/16 04:30:50;;;;;;;20.43;4.70;;;;;;;21.60;68.22;94413.94;5053306;28;20943;-85
2022/09/16 04:33:16;;;;;;;17.10;4.63;;;;;;;21.67;67.41;94421.13;5051796;28;20449;-85
2022/09/16 04:35:43;;;;;;;16.20;5.30;;;;;;;21.69;67.48;94416.41;5053609;28;20433;-85
2022/09/16 04:38:10;;;;;;;14.80;5.60;;;;;;;21.70;67.29;94396.69;5053400;28;20454;-84
2022/09/16 04:40:38;;;;;;;15.30;5.10;;;;;;;21.76;67.45;94404.69;5053404;28;20992;-85
2022/09/16 04:43:05;;;;;;;13.60;5.60;;;;;;;21.56;68.55;94399.38;5053584;28;20434;-83
2022/09/16 04:45:33;;;;;;;11.53;4.13;;;;;;;21.63;68.32;94392.16;5053987;28;20449;-84
2022/09/16 04:48:00;;;;;;;13.33;4.93;;;;;;;21.78;68.53;94401.78;5053267;28;20445;-84
2022/09/16 04:50:27;;;;;;;9.90;4.40;;;;;;;21.86;68.44;94404.22;5054247;28;20430;-83
2022/09/16 04:52:54;;;;;;;13.07;4.03;;;;;;;21.95;68.55;94405.63;5053302;28;20521;-84
2022/09/16 04:55:22;;;;;;;12.57;4.37;;;;;;;22.07;68.05;94408.50;5053369;28;20846;-84
2022/09/16 04:57:48;;;;;;;13.50;4.90;;;;;;;22.15;68.20;94424.28;5052952;28;20430;-84
2022/09/16 05:00:16;;;;;;;19.40;5.03;;;;;;;22.27;67.43;94416.44;5052972;28;20477;-84
2022/09/16 05:02:45;;;;;;;13.93;4.63;;;;;;;22.39;67.33;94418.19;5052906;28;20430;-84
2022/09/16 05:08:34;;;;;;;12.40;4.77;;;;;;;22.75;66.55;94412.22;5051737;28;20946;-84
2022/09/16 05:11:05;;;;;;;11.30;4.77;;;;;;;22.96;65.06;94400.38;5034767;28;20454;-84
2022/09/16 05:13:32;;;;;;;20.13;4.77;;;;;;;23.16;63.65;94402.88;5053088;28;20450;-83
2022/09/16 05:16:02;;;;;;;12.30;5.10;;;;;;;23.37;63.04;94410.50;5052881;28;20440;-84
2022/09/16 05:18:31;;;;;;;13.57;4.50;;;;;;;23.57;62.42;94406.84;5053393;28;20472;-84
2022/09/16 05:20:59;;;;;;;12.07;4.40;;;;;;;23.83;61.38;94401.22;5051082;28;20481;-84
2022/09/16 05:23:26;;;;;;;18.30;4.60;;;;;;;24.19;59.32;94389.63;5057243;28;20426;-84
2022/09/16 05:25:53;;;;;;;15.30;4.63;;;;;;;24.58;57.01;94390.19;5038488;28;20442;-85
2022/09/16 05:28:20;;;;;;;13.50;4.23;;;;;;;24.87;56.60;94383.13;5056581;28;20460;-84
2022/09/16 05:30:47;;;;;;;11.87;3.97;;;;;;;25.23;55.69;94376.78;5056523;28;20453;-84
2022/09/16 05:33:14;;;;;;;8.43;3.87;;;;;;;25.53;54.45;94376.66;5056918;28;20829;-85
2022/09/16 05:35:44;;;;;;;10.93;5.10;;;;;;;25.99;53.80;94383.84;5057172;28;20972;-91
2022/09/16 05:38:11;;;;;;;18.40;4.53;;;;;;;26.42;51.92;94369.97;5057983;28;20442;-91
2022/09/16 05:40:38;;;;;;;11.63;4.80;;;;;;;26.93;51.80;94386.22;5057358;28;20465;-91
2022/09/16 05:43:05;;;;;;;27.97;4.63;;;;;;;27.30;49.41;94383.88;5057533;28;20446;-87
2022/09/16 05:45:32;;;;;;;10.87;5.40;;;;;;;27.62;49.00;94384.13;5057022;28;20477;-86
2022/09/16 05:47:59;;;;;;;10.53;3.67;;;;;;;27.98;47.17;94382.72;5056182;28;20437;-85
2022/09/16 05:50:26;;;;;;;6.07;3.63;;;;;;;28.15;46.74;94369.16;5057296;28;20433;-86
2022/09/16 05:52:55;;;;;;;11.90;4.70;;;;;;;28.22;46.40;94376.00;5056835;28;20437;-86
2022/09/16 05:55:21;;;;;;;8.40;3.33;;;;;;;28.29;49.01;94371.25;5056778;28;20450;-86
2022/09/16 05:57:48;;;;;;;23.27;5.20;;;;;;;28.40;55.12;94385.69;5056830;28;20476;-91
2022/09/16 06:00:16;;;;;;;10.40;4.37;;;;;;;28.51;47.56;94382.03;5056664;28;21112;-88
2022/09/16 06:02:43;;;;;;;13.43;3.57;;;;;;;28.77;45.84;94379.59;5056957;28;20449;-93
2022/09/16 06:05:09;;;;;;;6.43;3.90;;;;;;;29.01;44.25;94374.72;5055957;28;20458;-85
2022/09/16 06:07:36;;;;;;;10.80;3.80;;;;;;;29.23;43.47;94367.34;5055975;28;20442;-87
2022/09/16 06:10:06;;;;;;;9.13;3.87;;;;;;;29.39;43.58;94366.38;5056303;28;20466;-87
2022/09/16 06:12:32;;;;;;;11.53;3.70;;;;;;;29.69;42.24;94381.19;5055758;28;20456;-84
2022/09/16 06:14:59;;;;;;;5.40;3.50;;;;;;;29.91;40.18;94384.59;5055850;28;20794;-85
2022/09/16 06:17:26;;;;;;;10.33;4.30;;;;;;;30.07;40.29;94372.81;5062715;28;20453;-85
2022/09/16 06:19:53;;;;;;;13.47;3.67;;;;;;;30.27;39.13;94371.25;5060807;28;20477;-85
2022/09/16 06:22:20;;;;;;;6.43;3.33;;;;;;;30.38;38.70;94373.75;5036119;28;20865;-85
2022/09/16 06:24:47;;;;;;;9.83;3.40;;;;;;;30.46;38.03;94375.13;5066591;28;20453;-85
2022/09/16 06:27:15;;;;;;;13.53;4.47;;;;;;;30.41;39.69;94369.69;5057203;28;20807;-84
2022/09/16 06:29:42;;;;;;;8.43;3.87;;;;;;;30.42;37.89;94363.19;5066444;28;20457;-84
2022/09/16 06:32:08;;;;;;;7.47;4.37;;;;;;;30.49;37.99;94364.56;5059104;28;20438;-85
2022/09/16 06:34:35;;;;;;;13.60;4.20;;;;;;;30.54;37.29;94361.03;5062745;28;21000;-85
2022/09/16 06:37:03;;;;;;;11.07;6.00;;;;;;;30.45;38.28;94368.88;5060462;28;20460;-86
2022/09/16 06:39:30;;;;;;;8.50;4.03;;;;;;;30.47;37.71;94366.72;5055230;28;20450;-85
2022/09/16 06:41:57;;;;;;;13.03;4.10;;;;;;;30.41;37.77;94366.97;5055519;28;20489;-89
2022/09/16 06:44:25;;;;;;;6.23;3.10;;;;;;;30.39;38.06;94355.59;5054764;28;20961;-86
2022/09/16 06:46:52;;;;;;;6.63;4.27;;;;;;;30.22;37.92;94358.50;5054744;28;20758;-86
2022/09/16 06:49:19;;;;;;;8.20;5.23;;;;;;;30.17;38.07;94366.63;5052376;28;20485;-84
2022/09/16 06:51:46;;;;;;;11.97;4.03;;;;;;;30.12;37.48;94369.31;5056281;28;20464;-86
2022/09/16 06:54:12;;;;;;;9.63;3.23;;;;;;;29.98;38.57;94376.22;5061226;28;20437;-86
2022/09/16 06:56:40;;;;;;;13.63;3.43;;;;;;;29.78;39.20;94374.22;5064753;28;20446;-86
2022/09/16 06:59:08;;;;;;;11.30;3.80;;;;;;;29.68;37.47;94374.97;5049207;28;20477;-84
2022/09/16 07:01:39;;;;;;;10.27;4.60;;;;;;;29.68;38.59;94377.69;5052821;28;20481;-85
2022/09/16 07:04:09;;;;;;;9.80;4.40;;;;;;;29.75;38.71;94375.56;5051102;28;20441;-85
2022/09/16 07:06:37;;;;;;;15.93;4.80;;;;;;;29.90;38.29;94374.84;5053358;28;20944;-86
2022/09/16 07:09:03;;;;;;;13.40;5.03;;;;;;;30.01;37.92;94368.41;5053859;28;20448;-86
2022/09/16 07:11:31;;;;;;;8.30;3.80;;;;;;;30.04;38.13;94376.00;5054149;28;20458;-86
2022/09/16 07:13:59;;;;;;;13.00;3.23;;;;;;;30.05;36.94;94384.94;5053485;28;20454;-86
2022/09/16 07:16:26;;;;;;;8.47;3.60;;;;;;;29.81;37.32;94388.06;5054022;28;20469;-86
2022/09/16 07:18:56;;;;;;;12.40;4.30;;;;;;;29.96;38.10;94381.09;5053668;28;20465;-86
2022/09/16 07:21:28;;;;;;;12.50;3.47;;;;;;;30.03;37.10;94376.28;5053598;28;20523;-86
2022/09/16 07:23:56;;;;;;;4.13;3.03;;;;;;;30.17;37.15;94356.59;5053554;28;20469;-86
2022/09/16 07:26:25;;;;;;;8.10;3.10;;;;;;;30.37;37.23;94371.31;5053696;28;20449;-85
2022/09/16 07:28:54;;;;;;;11.23;3.70;;;;;;;30.55;36.46;94364.56;5018513;28;20549;-85
2022/09/16 07:31:23;;;;;;;11.70;3.43;;;;;;;30.60;36.05;94370.00;5053423;28;20547;-86
2022/09/16 07:33:51;;;;;;;6.67;3.60;;;;;;;30.62;36.72;94363.25;5053302;28;20446;-87
2022/09/16 07:36:21;;;;;;;12.17;4.33;;;;;;;30.66;36.50;94356.25;5053028;28;20446;-86
2022/09/16 07:38:50;;;;;;;8.73;3.50;;;;;;;30.91;37.12;94360.06;5053104;28;20450;-86
2022/09/16 07:41:19;;;;;;;9.90;3.77;;;;;;;30.76;35.75;94364.38;5053169;28;20485;-86
2022/09/16 07:43:46;;;;;;;6.70;3.43;;;;;;;30.79;37.22;94342.16;5053167;28;20445;-87
2022/09/16 07:46:15;;;;;;;8.67;3.90;;;;;;;30.95;37.75;94343.00;5053055;28;20983;-87
2022/09/16 07:48:43;;;;;;;16.47;5.60;;;;;;;30.81;35.21;94331.06;5052829;28;20462;-87
2022/09/16 07:51:12;;;;;;;17.03;4.30;;;;;;;30.86;35.57;94332.97;5052965;28;20445;-85
2022/09/16 07:53:42;;;;;;;15.87;5.17;;;;;;;30.90;35.96;94331.31;5053174;28;20454;-86
2022/09/16 07:56:12;;;;;;;6.33;4.13;;;;;;;30.98;36.83;94337.03;5053001;28;20442;-87
2022/09/16 07:58:39;;;;;;;9.07;3.93;;;;;;;30.87;36.01;94326.44;5052685;28;20473;-86
2022/09/16 08:01:07;;;;;;;5.90;3.90;;;;;;;30.77;35.92;94338.09;5052630;28;20480;-86
2022/09/16 08:03:34;;;;;;;10.80;3.37;;;;;;;30.71;35.83;94340.00;5052911;28;20481;-87
2022/09/16 08:06:02;;;;;;;13.67;3.27;;;;;;;30.61;35.81;94329.13;5053189;28;20446;-86
2022/09/16 08:08:30;;;;;;;9.90;3.30;;;;;;;30.58;36.48;94321.50;5052734;28;20573;-86
2022/09/16 08:11:00;;;;;;;8.53;3.60;;;;;;;30.63;36.70;94321.53;5052812;28;20529;-85
2022/09/16 08:13:28;;;;;;;8.63;3.73;;;;;;;30.49;36.89;94315.81;5052461;28;20449;-85
2022/09/16 08:15:55;;;;;;;12.47;4.67;;;;;;;30.42;36.83;94314.44;5052643;28;20875;-86
2022/09/16 08:18:22;;;;;;;12.33;4.20;;;;;;;30.33;37.76;94316.03;5052792;28;20442;-86
2022/09/16 08:20:49;;;;;;;19.40;4.47;;;;;;;30.37;37.77;94317.97;5052612;28;20539;-86
2022/09/16 08:23:16;;;;;;;15.53;5.33;;;;;;;30.28;37.55;94313.31;5052258;28;20472;-86
2022/09/16 08:25:43;;;;;;;7.13;4.30;;;;;;;30.36;38.16;94313.63;5033903;28;20473;-85
2022/09/16 08:28:14;;;;;;;10.80;5.20;;;;;;;30.53;38.44;94319.59;5052757;28;20455;-86
2022/09/16 08:30:42;;;;;;;11.27;4.63;;;;;;;30.58;37.86;94318.78;5052705;28;20533;-86
2022/09/16 08:33:09;;;;;;;11.10;5.03;;;;;;;30.49;37.36;94304.16;5052345;28;20979;-87
2022/09/16 08:35:37;;;;;;;15.80;5.50;;;;;;;30.40;36.98;94286.81;5052391;28;20482;-86
2022/09/16 08:38:04;;;;;;;19.63;5.00;;;;;;;30.32;39.16;94298.97;5052608;28;20473;-88
2022/09/16 08:40:35;;;;;;;12.00;4.30;;;;;;;30.17;37.83;94301.66;5052171;28;20858;-86
2022/09/16 08:43:10;;;;;;;9.30;4.30;;;;;;;30.03;38.54;94304.03;5052131;28;20449;-86
2022/09/16 08:45:44;;;;;;;13.37;5.07;;;;;;;29.89;39.92;94292.06;5052191;28;20800;-84
2022/09/16 08:48:27;;;;;;;8.10;4.47;;;;;;;29.69;40.20;94292.75;5052146;28;20469;-86
2022/09/16 08:50:54;;;;;;;9.90;3.90;;;;;;;29.49;39.65;94288.09;5051877;28;20860;-86
2022/09/16 08:53:29;;;;;;;12.80;3.87;;;;;;;29.29;40.34;94285.22;5052239;28;20473;-86
2022/09/16 08:55:56;;;;;;;5.20;3.93;;;;;;;29.16;41.73;94280.25;5052139;28;20448;-86
2022/09/16 08:58:26;;;;;;;10.20;4.80;;;;;;;29.20;42.78;94278.66;5056056;28;20446;-86
2022/09/16 09:00:58;;;;;;;15.77;4.63;;;;;;;29.04;42.32;94276.94;5056409;28;20441;-85
2022/09/16 09:03:36;;;;;;;14.83;3.83;;;;;;;28.79;40.67;94278.34;5056112;28;20449;-87
2022/09/16 09:06:12;;;;;;;12.17;3.80;;;;;;;28.74;41.59;94281.00;5056085;28;20449;-86
2022/09/16 09:08:51;;;;;;;11.43;3.90;;;;;;;28.59;41.28;94270.06;5056153;28;20442;-86
2022/09/16 09:11:25;;;;;;;6.87;3.70;;;;;;;28.63;44.28;94276.59;5055986;28;20873;-85
2022/09/16 09:14:06;;;;;;;9.93;4.67;;;;;;;28.60;45.62;94274.38;5055688;28;20445;-86
2022/09/16 09:16:43;;;;;;;12.33;4.63;;;;;;;28.56;43.83;94294.88;5056387;28;20473;-86
2022/09/16 09:19:23;;;;;;;13.60;4.90;;;;;;;28.52;43.48;94285.66;5056083;28;20441;-87
2022/09/16 09:22:04;;;;;;;12.97;4.17;;;;;;;28.52;43.34;94282.97;5055822;28;20488;-85
2022/09/16 09:24:51;;;;;;;16.77;5.87;;;;;;;28.39;43.06;94278.81;5053648;28;20437;-86
2022/09/16 09:27:26;;;;;;;19.83;5.37;;;;;;;28.38;45.11;94286.09;5055728;28;20966;-85
2022/09/16 09:30:15;;;;;;;9.23;4.67;;;;;;;28.37;44.82;94283.66;5056370;28;20476;-87
2022/09/16 09:33:15;;;;;;;20.23;4.50;;;;;;;28.35;44.73;94286.59;5055613;28;20449;-86
2022/09/16 09:35:56;;;;;;;7.93;3.90;;;;;;;28.23;43.89;94285.88;5055474;28;20437;-85
2022/09/16 09:38:51;;;;;;;12.50;4.80;;;;;;;28.17;44.73;94280.69;5055517;28;20476;-86
2022/09/16 09:41:25;;;;;;;11.23;5.17;;;;;;;28.15;44.95;94291.75;5055600;28;20477;-86
2022/09/16 09:43:56;;;;;;;17.83;5.27;;;;;;;28.12;44.81;94286.03;5055392;28;20952;-86
2022/09/16 09:46:29;;;;;;;14.73;4.80;;;;;;;28.03;44.94;94282.97;5055810;28;20827;-85
2022/09/16 09:49:09;;;;;;;7.50;4.27;;;;;;;27.98;46.00;94286.41;5055446;28;20469;-85
2022/09/16 09:51:41;;;;;;;12.67;5.10;;;;;;;28.11;46.41;94296.03;5056140;28;20777;-86
2022/09/16 09:54:22;;;;;;;14.47;4.27;;;;;;;28.11;46.63;94295.22;5055551;28;20473;-86
2022/09/16 09:56:53;;;;;;;11.93;5.93;;;;;;;28.16;47.39;94296.06;5055654;28;20444;-85
2022/09/16 09:59:27;;;;;;;6.50;4.13;;;;;;;28.17;46.86;94305.78;5055188;28;20437;-85
2022/09/16 10:01:55;;;;;;;8.67;4.33;;;;;;;28.24;46.79;94301.03;5056107;28;20480;-85
2022/09/16 10:04:24;;;;;;;18.13;4.20;;;;;;;28.23;47.87;94307.47;5055970;28;20568;-85
2022/09/16 10:06:54;;;;;;;11.30;5.00;;;;;;;28.25;47.14;94313.47;5021448;28;20441;-86
2022/09/16 10:09:22;;;;;;;8.50;3.97;;;;;;;28.17;46.72;94323.88;5055551;28;20453;-93
2022/09/16 10:11:53;;;;;;;24.57;6.13;;;;;;;28.17;48.59;94332.78;5056875;28;20476;-92
2022/09/16 10:14:27;;;;;;;17.43;5.60;;;;;;;28.04;46.46;94333.97;5057571;28;20449;-91
2022/09/16 10:16:55;;;;;;;10.40;5.83;;;;;;;27.95;46.90;94340.06;5057906;28;20449;-92
2022/09/16 10:19:25;;;;;;;14.10;5.53;;;;;;;27.84;45.84;94354.50;5056332;28;20528;-86
2022/09/16 10:21:54;;;;;;;6.37;4.70;;;;;;;27.73;46.83;94361.59;5056460;28;20485;-85
2022/09/16 10:24:32;;;;;;;14.80;5.27;;;;;;;27.59;47.37;94390.78;5056242;28;20835;-86
2022/09/16 10:27:00;;;;;;;14.10;4.90;;;;;;;27.42;47.80;94416.94;5056072;28;20796;-87
2022/09/16 10:29:28;;;;;;;9.50;5.17;;;;;;;27.22;48.66;94424.72;5056569;28;20461;-84
2022/09/16 10:31:58;;;;;;;11.10;5.10;;;;;;;27.06;49.70;94434.41;5056035;28;20449;-84
2022/09/16 10:34:31;;;;;;;13.03;5.27;;;;;;;26.88;51.10;94456.91;5056720;28;20935;-91
2022/09/16 10:37:04;;;;;;;12.17;5.57;;;;;;;26.58;56.88;94475.19;5056539;28;20457;-93
2022/09/16 10:39:32;;;;;;;14.93;4.53;;;;;;;25.96;59.89;94480.31;5057558;28;20453;-87
2022/09/16 10:42:00;;;;;;;13.20;4.20;;;;;;;25.31;64.53;94460.50;5056569;28;20539;-90
2022/09/16 10:44:29;;;;;;;13.50;4.30;;;;;;;24.99;66.67;94472.59;5056280;28;20450;-87
2022/09/16 10:47:02;;;;;;;9.80;3.83;;;;;;;24.55;66.60;94493.38;5056247;28;20453;-87
2022/09/16 10:49:38;;;;;;;10.47;3.80;;;;;;;24.25;66.25;94530.03;5055117;28;20480;-87
2022/09/16 10:52:14;;;;;;;11.83;3.83;;;;;;;23.99;68.20;94526.56;5035943;28;20932;-85
2022/09/16 10:54:41;;;;;;;7.73;3.10;;;;;;;23.69;70.64;94518.41;5036067;28;20438;-86
2022/09/16 10:57:24;;;;;;;9.60;2.80;;;;;;;23.32;69.91;94508.59;5036350;28;20467;-91
2022/09/16 11:00:07;;;;;;;10.70;2.87;;;;;;;23.27;72.45;94501.22;5035839;28;20471;-87
2022/09/16 11:03:12;;;;;;;2.87;2.27;;;;;;;23.02;72.67;94486.97;5050553;28;20481;-86
2022/09/16 11:05:51;;;;;;;6.03;2.10;;;;;;;22.71;73.26;94485.91;5014009;28;20452;-88
2022/09/16 11:08:39;;;;;;;9.33;2.33;;;;;;;22.61;73.69;94485.56;5013804;28;20439;-87
2022/09/16 11:11:13;;;;;;;3.63;1.70;;;;;;;22.53;71.94;94451.84;5014111;28;20455;-86
2022/09/16 11:13:48;;;;;;;4.20;2.20;;;;;;;22.55;71.08;94432.91;5013665;28;20446;-88
2022/09/16 11:16:30;;;;;;;6.40;2.33;;;;;;;22.51;69.39;94411.13;5013759;28;20454;-88
2022/09/16 11:19:06;;;;;;;7.47;1.93;;;;;;;22.60;68.95;94411.72;5013641;28;20443;-87
2022/09/16 11:22:03;;;;;;;2.07;1.87;;;;;;;22.71;67.83;94408.34;5013273;28;20466;-87
2022/09/16 11:24:45;;;;;;;1.50;1.40;;;;;;;22.83;66.38;94389.75;4955300;29;20453;-87
2022/09/16 11:27:20;;;;;;;1.83;1.53;;;;;;;22.98;66.02;94386.75;4955147;29;20450;-87
2022/09/16 11:30:11;;;;;;;3.80;1.73;;;;;;;23.06;65.73;94376.59;4954759;29;20445;-88
2022/09/16 11:33:05;;;;;;;2.57;1.40;;;;;;;23.16;65.96;94382.28;4955203;29;20531;-87
2022/09/16 11:35:47;;;;;;;7.80;2.13;;;;;;;23.10;65.12;94371.63;4954968;29;20434;-87
2022/09/16 11:38:24;;;;;;;3.87;1.60;;;;;;;23.09;64.70;94353.91;4954871;29;20429;-86
2022/09/16 11:40:58;;;;;;;2.73;1.40;;;;;;;23.09;63.27;94346.72;4938924;29;20451;-87
2022/09/16 11:44:00;;;;;;;6.03;1.60;;;;;;;23.26;60.90;94330.09;5006020;28;20487;-87
2022/09/16 11:46:34;;;;;;;2.40;1.20;;;;;;;23.51;61.16;94322.00;5011652;28;20803;-87
2022/09/16 11:49:17;;;;;;;3.73;1.33;;;;;;;23.79;59.22;94315.09;5012156;28;20997;-88
2022/09/16 11:52:00;;;;;;;3.30;1.50;;;;;;;24.15;56.72;94304.50;5012538;28;20451;-88
2022/09/16 11:54:49;;;;;;;1.67;1.20;;;;;;;24.54;55.42;94306.63;5011550;28;20450;-87